sensor_id;sensor_type;location;lat;lon;timestamp;pressure;altitude;pressure_sealevel;temperature;humidity
43450;BME280;29041;42.266;23.110;2023-07-09T00:00:02;96226.50;;;17.37;96.05
43450;BME280;29041;42.266;23.110;2023-07-09T00:02:50;96228.47;;;17.20;96.91
43450;BME280;29041;42.266;23.110;2023-07-09T00:05:37;96217.38;;;17.45;95.01
43450;BME280;29041;42.266;23.110;2023-07-09T00:08:28;96216.78;;;17.36;95.48
43450;BME280;29041;42.266;23.110;2023-07-09T00:11:16;96215.66;;;17.37;96.27
43450;BME280;29041;42.266;23.110;2023-07-09T00:14:04;96212.25;;;17.40;95.32
43450;BME280;29041;42.266;23.110;2023-07-09T00:16:51;96213.78;;;17.21;96.05
43450;BME280;29041;42.266;23.110;2023-07-09T00:19:39;96214.56;;;17.22;96.46
43450;BME280;29041;42.266;23.110;2023-07-09T00:22:26;96213.81;;;17.05;97.75
43450;BME280;29041;42.266;23.110;2023-07-09T00:25:15;96216.72;;;17.32;96.85
43450;BME280;29041;42.266;23.110;2023-07-09T00:28:02;96222.84;;;16.93;98.54
43450;BME280;29041;42.266;23.110;2023-07-09T00:30:50;96213.91;;;16.61;100.00
43450;BME280;29041;42.266;23.110;2023-07-09T00:33:38;96225.09;;;16.43;100.00
43450;BME280;29041;42.266;23.110;2023-07-09T00:36:26;96228.59;;;16.44;100.00
43450;BME280;29041;42.266;23.110;2023-07-09T00:39:15;96227.19;;;16.34;100.00
43450;BME280;29041;42.266;23.110;2023-07-09T00:42:11;96224.91;;;16.36;100.00
43450;BME280;29041;42.266;23.110;2023-07-09T00:45:17;96223.66;;;16.17;100.00
43450;BME280;29041;42.266;23.110;2023-07-09T00:48:09;96224.34;;;16.14;100.00
43450;BME280;29041;42.266;23.110;2023-07-09T00:50:58;96217.53;;;16.21;100.00
43450;BME280;29041;42.266;23.110;2023-07-09T00:53:46;96218.91;;;15.98;100.00
43450;BME280;29041;42.266;23.110;2023-07-09T00:56:38;96213.13;;;16.00;100.00
43450;BME280;29041;42.266;23.110;2023-07-09T00:59:28;96213.09;;;15.71;100.00
43450;BME280;29041;42.266;23.110;2023-07-09T01:02:17;96219.00;;;15.61;100.00
43450;BME280;29041;42.266;23.110;2023-07-09T01:05:09;96211.97;;;15.73;100.00
43450;BME280;29041;42.266;23.110;2023-07-09T01:07:58;96209.56;;;15.55;100.00
43450;BME280;29041;42.266;23.110;2023-07-09T01:10:45;96200.31;;;15.56;100.00
43450;BME280;29041;42.266;23.110;2023-07-09T01:13:33;96209.38;;;15.48;100.00
43450;BME280;29041;42.266;23.110;2023-07-09T01:16:26;96210.34;;;15.55;100.00
43450;BME280;29041;42.266;23.110;2023-07-09T01:19:14;96208.75;;;15.54;100.00
43450;BME280;29041;42.266;23.110;2023-07-09T01:22:04;96212.81;;;15.61;100.00
43450;BME280;29041;42.266;23.110;2023-07-09T01:24:54;96209.06;;;15.37;100.00
43450;BME280;29041;42.266;23.110;2023-07-09T01:27:45;96203.19;;;15.35;100.00
43450;BME280;29041;42.266;23.110;2023-07-09T01:30:36;96199.31;;;15.48;100.00
43450;BME280;29041;42.266;23.110;2023-07-09T01:33:24;96196.31;;;15.37;100.00
43450;BME280;29041;42.266;23.110;2023-07-09T01:36:12;96194.44;;;15.13;100.00
43450;BME280;29041;42.266;23.110;2023-07-09T01:39:02;96201.16;;;15.32;100.00
43450;BME280;29041;42.266;23.110;2023-07-09T01:41:49;96191.13;;;15.32;100.00
43450;BME280;29041;42.266;23.110;2023-07-09T01:44:37;96178.22;;;15.01;100.00
43450;BME280;29041;42.266;23.110;2023-07-09T01:47:24;96194.75;;;15.12;100.00
43450;BME280;29041;42.266;23.110;2023-07-09T01:50:11;96197.91;;;15.26;100.00
43450;BME280;29041;42.266;23.110;2023-07-09T01:52:58;96190.66;;;15.43;100.00
43450;BME280;29041;42.266;23.110;2023-07-09T01:55:47;96205.34;;;15.29;100.00
43450;BME280;29041;42.266;23.110;2023-07-09T01:58:35;96203.91;;;15.19;100.00
43450;BME280;29041;42.266;23.110;2023-07-09T02:01:22;96205.16;;;15.10;100.00
43450;BME280;29041;42.266;23.110;2023-07-09T02:04:11;96203.13;;;15.06;100.00
43450;BME280;29041;42.266;23.110;2023-07-09T02:06:58;96213.63;;;14.83;100.00
43450;BME280;29041;42.266;23.110;2023-07-09T02:09:45;96199.81;;;14.64;100.00
43450;BME280;29041;42.266;23.110;2023-07-09T02:12:34;96213.50;;;14.80;100.00
43450;BME280;29041;42.266;23.110;2023-07-09T02:15:21;96212.72;;;14.91;100.00
43450;BME280;29041;42.266;23.110;2023-07-09T02:18:08;96212.47;;;14.72;100.00
43450;BME280;29041;42.266;23.110;2023-07-09T02:20:55;96212.59;;;14.88;100.00
43450;BME280;29041;42.266;23.110;2023-07-09T02:23:42;96211.22;;;15.06;100.00
43450;BME280;29041;42.266;23.110;2023-07-09T02:26:29;96212.53;;;15.78;100.00
43450;BME280;29041;42.266;23.110;2023-07-09T02:29:18;96215.34;;;15.82;100.00
43450;BME280;29041;42.266;23.110;2023-07-09T02:32:06;96233.72;;;15.35;100.00
43450;BME280;29041;42.266;23.110;2023-07-09T02:34:54;96213.59;;;15.08;100.00
43450;BME280;29041;42.266;23.110;2023-07-09T02:37:41;96220.69;;;15.66;100.00
43450;BME280;29041;42.266;23.110;2023-07-09T02:40:28;96227.28;;;15.40;100.00
43450;BME280;29041;42.266;23.110;2023-07-09T02:43:16;96235.63;;;15.47;100.00
43450;BME280;29041;42.266;23.110;2023-07-09T02:46:04;96233.88;;;15.14;100.00
43450;BME280;29041;42.266;23.110;2023-07-09T02:48:51;96231.63;;;14.67;100.00
43450;BME280;29041;42.266;23.110;2023-07-09T02:51:38;96229.00;;;14.58;100.00
43450;BME280;29041;42.266;23.110;2023-07-09T02:54:26;96240.41;;;14.30;100.00
43450;BME280;29041;42.266;23.110;2023-07-09T02:57:13;96237.28;;;14.28;100.00
43450;BME280;29041;42.266;23.110;2023-07-09T03:00:00;96243.91;;;14.31;100.00
43450;BME280;29041;42.266;23.110;2023-07-09T03:02:53;96245.41;;;14.40;100.00
43450;BME280;29041;42.266;23.110;2023-07-09T03:05:40;96248.88;;;14.41;100.00
43450;BME280;29041;42.266;23.110;2023-07-09T03:08:27;96255.22;;;14.45;100.00
43450;BME280;29041;42.266;23.110;2023-07-09T03:11:16;96249.53;;;14.25;100.00
43450;BME280;29041;42.266;23.110;2023-07-09T03:14:03;96261.03;;;14.35;100.00
43450;BME280;29041;42.266;23.110;2023-07-09T03:16:50;96247.41;;;14.31;100.00
43450;BME280;29041;42.266;23.110;2023-07-09T03:19:39;96252.38;;;14.29;100.00
43450;BME280;29041;42.266;23.110;2023-07-09T03:22:26;96261.13;;;14.26;100.00
43450;BME280;29041;42.266;23.110;2023-07-09T03:25:13;96262.59;;;14.23;100.00
43450;BME280;29041;42.266;23.110;2023-07-09T03:28:01;96269.44;;;14.21;100.00
43450;BME280;29041;42.266;23.110;2023-07-09T03:30:48;96276.72;;;14.20;100.00
43450;BME280;29041;42.266;23.110;2023-07-09T03:33:36;96268.44;;;14.25;100.00
43450;BME280;29041;42.266;23.110;2023-07-09T03:36:24;96275.59;;;14.09;100.00
43450;BME280;29041;42.266;23.110;2023-07-09T03:39:11;96271.31;;;14.08;100.00
43450;BME280;29041;42.266;23.110;2023-07-09T03:41:58;96267.59;;;14.12;100.00
43450;BME280;29041;42.266;23.110;2023-07-09T03:44:46;96271.75;;;14.10;100.00
43450;BME280;29041;42.266;23.110;2023-07-09T03:47:33;96270.34;;;14.25;100.00
43450;BME280;29041;42.266;23.110;2023-07-09T03:50:20;96267.44;;;15.01;100.00
43450;BME280;29041;42.266;23.110;2023-07-09T03:53:08;96257.66;;;14.71;100.00
43450;BME280;29041;42.266;23.110;2023-07-09T03:55:56;96253.28;;;14.46;100.00
43450;BME280;29041;42.266;23.110;2023-07-09T03:58:45;96269.84;;;14.44;100.00
43450;BME280;29041;42.266;23.110;2023-07-09T04:01:32;96269.94;;;14.35;100.00
43450;BME280;29041;42.266;23.110;2023-07-09T04:04:19;96262.06;;;14.42;100.00
43450;BME280;29041;42.266;23.110;2023-07-09T04:07:06;96268.19;;;14.52;100.00
43450;BME280;29041;42.266;23.110;2023-07-09T04:09:54;96268.41;;;14.59;100.00
43450;BME280;29041;42.266;23.110;2023-07-09T04:12:41;96268.84;;;14.49;100.00
43450;BME280;29041;42.266;23.110;2023-07-09T04:15:29;96270.88;;;14.52;100.00
43450;BME280;29041;42.266;23.110;2023-07-09T04:18:16;96266.22;;;14.73;100.00
43450;BME280;29041;42.266;23.110;2023-07-09T04:21:03;96261.19;;;14.51;100.00
43450;BME280;29041;42.266;23.110;2023-07-09T04:23:50;96258.84;;;14.62;100.00
43450;BME280;29041;42.266;23.110;2023-07-09T04:26:39;96263.03;;;14.71;100.00
43450;BME280;29041;42.266;23.110;2023-07-09T04:29:26;96269.34;;;14.75;100.00
43450;BME280;29041;42.266;23.110;2023-07-09T04:32:14;96270.72;;;14.82;100.00
43450;BME280;29041;42.266;23.110;2023-07-09T04:35:02;96268.81;;;15.07;100.00
43450;BME280;29041;42.266;23.110;2023-07-09T04:37:51;96275.56;;;15.13;100.00
43450;BME280;29041;42.266;23.110;2023-07-09T04:40:38;96279.38;;;15.37;100.00
43450;BME280;29041;42.266;23.110;2023-07-09T04:43:26;96280.25;;;15.66;100.00
43450;BME280;29041;42.266;23.110;2023-07-09T04:46:14;96272.84;;;16.20;100.00
43450;BME280;29041;42.266;23.110;2023-07-09T04:49:01;96282.31;;;16.26;100.00
43450;BME280;29041;42.266;23.110;2023-07-09T04:51:48;96259.97;;;16.00;100.00
43450;BME280;29041;42.266;23.110;2023-07-09T04:54:35;96274.81;;;16.95;100.00
43450;BME280;29041;42.266;23.110;2023-07-09T04:57:23;96271.69;;;16.49;100.00
43450;BME280;29041;42.266;23.110;2023-07-09T05:00:13;96275.69;;;17.16;100.00
43450;BME280;29041;42.266;23.110;2023-07-09T05:03:00;96276.09;;;17.34;97.76
43450;BME280;29041;42.266;23.110;2023-07-09T05:05:48;96281.09;;;17.16;98.42
43450;BME280;29041;42.266;23.110;2023-07-09T05:08:35;96285.44;;;17.72;93.93
43450;BME280;29041;42.266;23.110;2023-07-09T05:11:22;96287.06;;;17.76;92.16
43450;BME280;29041;42.266;23.110;2023-07-09T05:14:09;96292.72;;;17.68;92.17
43450;BME280;29041;42.266;23.110;2023-07-09T05:16:58;96301.66;;;17.68;92.79
43450;BME280;29041;42.266;23.110;2023-07-09T05:19:45;96287.66;;;18.02;90.49
43450;BME280;29041;42.266;23.110;2023-07-09T05:22:32;96289.56;;;18.01;90.95
43450;BME280;29041;42.266;23.110;2023-07-09T05:25:19;96290.88;;;17.91;92.39
43450;BME280;29041;42.266;23.110;2023-07-09T05:28:06;96297.63;;;18.37;92.90
43450;BME280;29041;42.266;23.110;2023-07-09T05:30:54;96294.09;;;18.36;90.39
43450;BME280;29041;42.266;23.110;2023-07-09T05:33:42;96286.91;;;18.44;89.99
43450;BME280;29041;42.266;23.110;2023-07-09T05:36:30;96285.94;;;18.79;88.98
43450;BME280;29041;42.266;23.110;2023-07-09T05:39:18;96291.56;;;18.90;87.72
43450;BME280;29041;42.266;23.110;2023-07-09T05:42:06;96279.19;;;18.93;87.10
43450;BME280;29041;42.266;23.110;2023-07-09T05:44:53;96285.44;;;18.93;87.07
43450;BME280;29041;42.266;23.110;2023-07-09T05:47:40;96266.09;;;19.25;85.82
43450;BME280;29041;42.266;23.110;2023-07-09T05:50:29;96270.66;;;19.44;84.46
43450;BME280;29041;42.266;23.110;2023-07-09T05:53:16;96278.00;;;19.71;83.35
43450;BME280;29041;42.266;23.110;2023-07-09T05:56:04;96278.56;;;20.10;81.60
43450;BME280;29041;42.266;23.110;2023-07-09T05:58:51;96272.63;;;20.39;78.63
43450;BME280;29041;42.266;23.110;2023-07-09T06:01:38;96273.88;;;20.49;78.35
43450;BME280;29041;42.266;23.110;2023-07-09T06:04:25;96271.88;;;20.42;76.38
43450;BME280;29041;42.266;23.110;2023-07-09T06:07:14;96267.19;;;20.42;74.67
43450;BME280;29041;42.266;23.110;2023-07-09T06:10:01;96271.56;;;20.51;74.26
43450;BME280;29041;42.266;23.110;2023-07-09T06:12:49;96265.97;;;20.74;75.21
43450;BME280;29041;42.266;23.110;2023-07-09T06:15:36;96261.81;;;20.50;75.09
43450;BME280;29041;42.266;23.110;2023-07-09T06:18:24;96266.94;;;20.96;74.44
43450;BME280;29041;42.266;23.110;2023-07-09T06:21:14;96271.13;;;20.83;73.35
43450;BME280;29041;42.266;23.110;2023-07-09T06:24:05;96265.47;;;21.06;72.42
43450;BME280;29041;42.266;23.110;2023-07-09T06:26:52;96272.66;;;21.32;70.84
43450;BME280;29041;42.266;23.110;2023-07-09T06:29:39;96268.97;;;21.62;69.09
43450;BME280;29041;42.266;23.110;2023-07-09T06:32:27;96267.47;;;21.76;68.10
43450;BME280;29041;42.266;23.110;2023-07-09T06:35:15;96268.31;;;21.83;70.20
43450;BME280;29041;42.266;23.110;2023-07-09T06:38:02;96261.38;;;22.08;68.73
43450;BME280;29041;42.266;23.110;2023-07-09T06:40:51;96261.78;;;22.13;66.39
43450;BME280;29041;42.266;23.110;2023-07-09T06:43:38;96257.53;;;22.23;65.23
43450;BME280;29041;42.266;23.110;2023-07-09T06:46:29;96257.94;;;22.32;64.55
43450;BME280;29041;42.266;23.110;2023-07-09T06:49:17;96253.34;;;22.65;64.15
43450;BME280;29041;42.266;23.110;2023-07-09T06:52:05;96235.75;;;22.88;63.58
43450;BME280;29041;42.266;23.110;2023-07-09T06:54:52;96226.78;;;22.84;63.18
43450;BME280;29041;42.266;23.110;2023-07-09T06:57:41;96234.97;;;23.17;63.29
43450;BME280;29041;42.266;23.110;2023-07-09T07:00:28;96237.72;;;22.88;59.11
43450;BME280;29041;42.266;23.110;2023-07-09T07:03:15;96232.63;;;22.86;58.89
43450;BME280;29041;42.266;23.110;2023-07-09T07:06:03;96229.50;;;23.06;59.63
43450;BME280;29041;42.266;23.110;2023-07-09T07:08:52;96235.38;;;23.04;59.69
43450;BME280;29041;42.266;23.110;2023-07-09T07:11:39;96229.50;;;22.98;62.32
43450;BME280;29041;42.266;23.110;2023-07-09T07:14:28;96223.25;;;22.91;59.83
43450;BME280;29041;42.266;23.110;2023-07-09T07:17:16;96226.75;;;23.17;61.57
43450;BME280;29041;42.266;23.110;2023-07-09T07:20:05;96232.22;;;23.31;60.12
43450;BME280;29041;42.266;23.110;2023-07-09T07:22:57;96233.38;;;23.41;57.78
43450;BME280;29041;42.266;23.110;2023-07-09T07:25:45;96226.38;;;23.18;58.47
43450;BME280;29041;42.266;23.110;2023-07-09T07:28:34;96232.19;;;23.56;56.63
43450;BME280;29041;42.266;23.110;2023-07-09T07:31:23;96219.72;;;23.23;57.49
43450;BME280;29041;42.266;23.110;2023-07-09T07:34:10;96211.91;;;23.25;59.92
43450;BME280;29041;42.266;23.110;2023-07-09T07:36:58;96207.84;;;23.73;58.72
43450;BME280;29041;42.266;23.110;2023-07-09T07:39:45;96214.03;;;23.88;58.67
43450;BME280;29041;42.266;23.110;2023-07-09T07:42:32;96208.19;;;23.86;56.23
43450;BME280;29041;42.266;23.110;2023-07-09T07:45:20;96193.34;;;23.72;55.61
43450;BME280;29041;42.266;23.110;2023-07-09T07:48:09;96198.47;;;23.70;58.59
43450;BME280;29041;42.266;23.110;2023-07-09T07:51:00;96201.78;;;24.18;59.34
43450;BME280;29041;42.266;23.110;2023-07-09T07:53:48;96194.72;;;24.20;54.89
43450;BME280;29041;42.266;23.110;2023-07-09T07:56:36;96194.16;;;24.47;57.47
43450;BME280;29041;42.266;23.110;2023-07-09T07:59:24;96204.06;;;24.34;57.41
43450;BME280;29041;42.266;23.110;2023-07-09T08:02:12;96200.63;;;24.79;57.06
43450;BME280;29041;42.266;23.110;2023-07-09T08:05:01;96205.22;;;25.34;54.89
43450;BME280;29041;42.266;23.110;2023-07-09T08:07:49;96199.09;;;26.51;50.20
43450;BME280;29041;42.266;23.110;2023-07-09T08:10:36;96183.84;;;28.55;44.88
43450;BME280;29041;42.266;23.110;2023-07-09T08:13:24;96181.31;;;31.59;37.45
43450;BME280;29041;42.266;23.110;2023-07-09T08:16:11;96180.31;;;29.50;40.97
43450;BME280;29041;42.266;23.110;2023-07-09T08:18:59;96179.97;;;29.77;41.93
43450;BME280;29041;42.266;23.110;2023-07-09T08:21:47;96174.47;;;29.60;41.01
43450;BME280;29041;42.266;23.110;2023-07-09T08:24:35;96160.53;;;33.08;36.27
43450;BME280;29041;42.266;23.110;2023-07-09T08:27:22;96158.00;;;31.69;37.75
43450;BME280;29041;42.266;23.110;2023-07-09T08:30:10;96164.63;;;30.02;39.72
43450;BME280;29041;42.266;23.110;2023-07-09T08:32:57;96163.19;;;29.97;42.18
43450;BME280;29041;42.266;23.110;2023-07-09T08:35:44;96160.25;;;30.56;38.86
43450;BME280;29041;42.266;23.110;2023-07-09T08:38:32;96166.56;;;30.92;38.03
43450;BME280;29041;42.266;23.110;2023-07-09T08:41:31;96163.00;;;31.39;37.15
43450;BME280;29041;42.266;23.110;2023-07-09T08:44:44;96155.56;;;33.96;32.29
43450;BME280;29041;42.266;23.110;2023-07-09T08:47:43;96151.81;;;34.75;31.16
43450;BME280;29041;42.266;23.110;2023-07-09T08:50:36;96166.41;;;30.09;38.20
43450;BME280;29041;42.266;23.110;2023-07-09T08:53:33;96169.41;;;30.40;38.36
43450;BME280;29041;42.266;23.110;2023-07-09T08:56:22;96159.31;;;33.56;32.87
43450;BME280;29041;42.266;23.110;2023-07-09T08:59:11;96155.63;;;33.31;32.58
43450;BME280;29041;42.266;23.110;2023-07-09T09:02:03;96158.22;;;33.06;33.02
43450;BME280;29041;42.266;23.110;2023-07-09T09:04:56;96155.91;;;31.38;35.68
43450;BME280;29041;42.266;23.110;2023-07-09T09:07:44;96158.75;;;32.23;35.20
43450;BME280;29041;42.266;23.110;2023-07-09T09:10:34;96144.03;;;32.45;34.26
43450;BME280;29041;42.266;23.110;2023-07-09T09:13:28;96156.47;;;30.98;37.40
43450;BME280;29041;42.266;23.110;2023-07-09T09:16:22;96157.13;;;29.31;41.13
43450;BME280;29041;42.266;23.110;2023-07-09T09:19:18;96148.59;;;31.09;38.83
43450;BME280;29041;42.266;23.110;2023-07-09T09:22:09;96132.81;;;30.71;38.25
43450;BME280;29041;42.266;23.110;2023-07-09T09:25:10;96153.28;;;32.10;34.11
43450;BME280;29041;42.266;23.110;2023-07-09T09:28:02;96141.66;;;31.49;34.74
43450;BME280;29041;42.266;23.110;2023-07-09T09:30:50;96152.81;;;31.58;35.74
43450;BME280;29041;42.266;23.110;2023-07-09T09:33:41;96148.78;;;30.41;38.35
43450;BME280;29041;42.266;23.110;2023-07-09T09:36:28;96135.94;;;31.08;37.60
43450;BME280;29041;42.266;23.110;2023-07-09T09:39:16;96131.47;;;31.24;36.73
43450;BME280;29041;42.266;23.110;2023-07-09T09:42:10;96132.50;;;31.84;36.86
43450;BME280;29041;42.266;23.110;2023-07-09T09:45:11;96147.91;;;30.70;37.14
43450;BME280;29041;42.266;23.110;2023-07-09T09:48:03;96132.03;;;31.63;34.97
43450;BME280;29041;42.266;23.110;2023-07-09T09:50:58;96134.03;;;31.85;34.60
43450;BME280;29041;42.266;23.110;2023-07-09T09:53:48;96136.81;;;30.57;38.16
43450;BME280;29041;42.266;23.110;2023-07-09T09:56:37;96128.72;;;29.13;40.32
43450;BME280;29041;42.266;23.110;2023-07-09T09:59:31;96130.94;;;28.56;42.75
43450;BME280;29041;42.266;23.110;2023-07-09T10:02:21;96115.22;;;27.47;44.78
43450;BME280;29041;42.266;23.110;2023-07-09T10:05:12;96126.69;;;27.82;44.76
43450;BME280;29041;42.266;23.110;2023-07-09T10:08:05;96115.56;;;28.39;42.59
43450;BME280;29041;42.266;23.110;2023-07-09T10:11:07;96116.22;;;29.09;41.47
43450;BME280;29041;42.266;23.110;2023-07-09T10:13:59;96115.75;;;28.64;40.09
43450;BME280;29041;42.266;23.110;2023-07-09T10:16:52;96107.47;;;28.48;40.36
43450;BME280;29041;42.266;23.110;2023-07-09T10:19:49;96114.25;;;27.74;43.68
43450;BME280;29041;42.266;23.110;2023-07-09T10:22:48;96119.28;;;28.15;41.99
43450;BME280;29041;42.266;23.110;2023-07-09T10:25:42;96106.69;;;28.14;40.68
43450;BME280;29041;42.266;23.110;2023-07-09T10:29:03;96099.94;;;28.65;40.16
43450;BME280;29041;42.266;23.110;2023-07-09T10:31:57;96104.63;;;28.52;41.07
43450;BME280;29041;42.266;23.110;2023-07-09T10:34:55;96105.19;;;28.92;40.55
43450;BME280;29041;42.266;23.110;2023-07-09T10:37:59;96103.84;;;28.34;40.49
43450;BME280;29041;42.266;23.110;2023-07-09T10:40:52;96100.13;;;28.91;40.97
43450;BME280;29041;42.266;23.110;2023-07-09T10:43:44;96099.19;;;28.81;40.51
43450;BME280;29041;42.266;23.110;2023-07-09T10:46:35;96093.03;;;28.57;39.75
43450;BME280;29041;42.266;23.110;2023-07-09T10:49:30;96096.09;;;28.79;40.74
43450;BME280;29041;42.266;23.110;2023-07-09T10:52:25;96090.63;;;28.92;39.68
43450;BME280;29041;42.266;23.110;2023-07-09T10:55:16;96102.22;;;28.70;40.88
43450;BME280;29041;42.266;23.110;2023-07-09T10:58:14;96107.63;;;28.08;41.78
43450;BME280;29041;42.266;23.110;2023-07-09T11:01:06;96092.88;;;28.64;42.11
43450;BME280;29041;42.266;23.110;2023-07-09T11:03:57;96100.38;;;28.63;41.91
43450;BME280;29041;42.266;23.110;2023-07-09T11:06:48;96096.94;;;28.59;40.92
43450;BME280;29041;42.266;23.110;2023-07-09T11:09:41;96089.25;;;28.84;40.26
43450;BME280;29041;42.266;23.110;2023-07-09T11:12:33;96081.28;;;28.86;40.49
43450;BME280;29041;42.266;23.110;2023-07-09T11:15:27;96097.53;;;28.50;41.55
43450;BME280;29041;42.266;23.110;2023-07-09T11:18:21;96092.59;;;28.91;40.03
43450;BME280;29041;42.266;23.110;2023-07-09T11:21:15;96098.94;;;28.75;39.99
43450;BME280;29041;42.266;23.110;2023-07-09T11:24:03;96093.31;;;28.46;39.53
43450;BME280;29041;42.266;23.110;2023-07-09T11:26:53;96092.81;;;28.51;38.52
43450;BME280;29041;42.266;23.110;2023-07-09T11:29:45;96086.47;;;28.67;39.04
43450;BME280;29041;42.266;23.110;2023-07-09T11:32:33;96084.94;;;28.66;39.33
43450;BME280;29041;42.266;23.110;2023-07-09T11:35:21;96088.75;;;28.39;38.50
43450;BME280;29041;42.266;23.110;2023-07-09T11:38:16;96084.25;;;28.62;37.97
43450;BME280;29041;42.266;23.110;2023-07-09T11:41:25;96081.03;;;28.96;37.90
43450;BME280;29041;42.266;23.110;2023-07-09T11:44:17;96072.53;;;28.74;36.03
43450;BME280;29041;42.266;23.110;2023-07-09T11:47:17;96076.69;;;28.33;36.46
43450;BME280;29041;42.266;23.110;2023-07-09T11:50:16;96082.91;;;29.00;36.64
43450;BME280;29041;42.266;23.110;2023-07-09T11:53:24;96083.03;;;28.79;35.86
43450;BME280;29041;42.266;23.110;2023-07-09T11:56:18;96087.28;;;28.34;37.53
43450;BME280;29041;42.266;23.110;2023-07-09T11:59:05;96076.59;;;28.37;36.90
43450;BME280;29041;42.266;23.110;2023-07-09T12:01:54;96072.50;;;28.58;39.29
43450;BME280;29041;42.266;23.110;2023-07-09T12:04:48;96067.69;;;28.62;34.42
43450;BME280;29041;42.266;23.110;2023-07-09T12:07:37;96076.16;;;28.38;35.58
43450;BME280;29041;42.266;23.110;2023-07-09T12:10:25;96071.22;;;28.79;35.95
43450;BME280;29041;42.266;23.110;2023-07-09T12:13:13;96076.59;;;28.70;34.66
43450;BME280;29041;42.266;23.110;2023-07-09T12:16:00;96074.41;;;28.77;32.78
43450;BME280;29041;42.266;23.110;2023-07-09T12:18:49;96066.97;;;28.91;34.39
43450;BME280;29041;42.266;23.110;2023-07-09T12:21:38;96067.34;;;28.43;34.42
43450;BME280;29041;42.266;23.110;2023-07-09T12:24:28;96066.84;;;28.32;33.57
43450;BME280;29041;42.266;23.110;2023-07-09T12:27:22;96063.56;;;28.54;34.26
43450;BME280;29041;42.266;23.110;2023-07-09T12:30:11;96054.16;;;28.34;33.30
43450;BME280;29041;42.266;23.110;2023-07-09T12:32:59;96062.94;;;28.46;33.71
43450;BME280;29041;42.266;23.110;2023-07-09T12:35:56;96060.44;;;28.35;34.48
43450;BME280;29041;42.266;23.110;2023-07-09T12:38:45;96061.34;;;28.32;32.64
43450;BME280;29041;42.266;23.110;2023-07-09T12:41:37;96059.25;;;28.20;33.58
43450;BME280;29041;42.266;23.110;2023-07-09T12:44:26;96051.31;;;28.55;35.53
43450;BME280;29041;42.266;23.110;2023-07-09T12:47:14;96052.34;;;28.44;33.11
43450;BME280;29041;42.266;23.110;2023-07-09T12:50:27;96052.97;;;28.36;33.70
43450;BME280;29041;42.266;23.110;2023-07-09T12:53:18;96044.34;;;28.33;32.62
43450;BME280;29041;42.266;23.110;2023-07-09T12:56:12;96054.16;;;28.51;30.69
43450;BME280;29041;42.266;23.110;2023-07-09T12:59:02;96048.91;;;28.24;31.84
43450;BME280;29041;42.266;23.110;2023-07-09T13:01:56;96054.59;;;28.33;31.36
43450;BME280;29041;42.266;23.110;2023-07-09T13:04:44;96050.56;;;28.21;30.13
43450;BME280;29041;42.266;23.110;2023-07-09T13:07:34;96040.66;;;27.87;30.73
43450;BME280;29041;42.266;23.110;2023-07-09T13:10:25;96050.66;;;28.17;30.11
43450;BME280;29041;42.266;23.110;2023-07-09T13:13:13;96054.78;;;28.09;26.99
43450;BME280;29041;42.266;23.110;2023-07-09T13:16:01;96060.13;;;28.16;28.01
43450;BME280;29041;42.266;23.110;2023-07-09T13:18:48;96058.34;;;27.90;28.46
43450;BME280;29041;42.266;23.110;2023-07-09T13:21:36;96058.69;;;27.92;29.11
43450;BME280;29041;42.266;23.110;2023-07-09T13:24:29;96055.72;;;28.36;30.30
43450;BME280;29041;42.266;23.110;2023-07-09T13:27:18;96056.56;;;28.16;29.59
43450;BME280;29041;42.266;23.110;2023-07-09T13:30:08;96050.03;;;28.26;30.00
43450;BME280;29041;42.266;23.110;2023-07-09T13:32:55;96040.09;;;28.29;30.34
43450;BME280;29041;42.266;23.110;2023-07-09T13:35:42;96052.25;;;28.15;27.77
43450;BME280;29041;42.266;23.110;2023-07-09T13:38:29;96048.97;;;28.03;28.66
43450;BME280;29041;42.266;23.110;2023-07-09T13:41:18;96042.19;;;27.71;28.97
43450;BME280;29041;42.266;23.110;2023-07-09T13:44:13;96038.19;;;27.93;30.01
43450;BME280;29041;42.266;23.110;2023-07-09T13:47:00;96032.72;;;27.73;30.65
43450;BME280;29041;42.266;23.110;2023-07-09T13:49:48;96032.31;;;27.91;31.81
43450;BME280;29041;42.266;23.110;2023-07-09T13:52:35;96056.22;;;27.97;31.27
43450;BME280;29041;42.266;23.110;2023-07-09T13:55:23;96032.47;;;27.83;30.19
43450;BME280;29041;42.266;23.110;2023-07-09T13:58:11;96047.06;;;28.00;30.74
43450;BME280;29041;42.266;23.110;2023-07-09T14:01:08;96033.28;;;27.84;32.12
43450;BME280;29041;42.266;23.110;2023-07-09T14:03:57;96034.88;;;27.81;30.89
43450;BME280;29041;42.266;23.110;2023-07-09T14:06:45;96037.41;;;27.92;32.41
43450;BME280;29041;42.266;23.110;2023-07-09T14:09:32;96046.50;;;27.73;30.64
43450;BME280;29041;42.266;23.110;2023-07-09T14:12:19;96042.03;;;27.79;31.45
43450;BME280;29041;42.266;23.110;2023-07-09T14:15:12;96050.66;;;27.81;31.53
43450;BME280;29041;42.266;23.110;2023-07-09T14:18:01;96035.41;;;27.39;32.03
43450;BME280;29041;42.266;23.110;2023-07-09T14:20:49;96048.78;;;27.94;32.91
43450;BME280;29041;42.266;23.110;2023-07-09T14:23:36;96061.88;;;27.90;29.42
43450;BME280;29041;42.266;23.110;2023-07-09T14:26:24;96037.41;;;27.92;30.83
43450;BME280;29041;42.266;23.110;2023-07-09T14:29:11;96049.81;;;28.00;33.19
43450;BME280;29041;42.266;23.110;2023-07-09T14:31:59;96031.66;;;27.50;33.07
43450;BME280;29041;42.266;23.110;2023-07-09T14:34:48;96050.34;;;27.95;32.47
43450;BME280;29041;42.266;23.110;2023-07-09T14:37:35;96041.47;;;27.88;29.20
43450;BME280;29041;42.266;23.110;2023-07-09T14:40:22;96050.31;;;27.62;29.74
43450;BME280;29041;42.266;23.110;2023-07-09T14:43:10;96029.97;;;27.73;29.51